createdAt,value
2023-02-23T00:00:34.644Z,25.00
2023-02-23T00:03:03.423Z,21.17
2023-02-23T00:05:33.290Z,22.95
2023-02-23T00:08:02.509Z,21.30
2023-02-23T00:10:31.269Z,24.77
2023-02-23T00:12:59.588Z,24.08
2023-02-23T00:15:27.658Z,22.58
2023-02-23T00:17:56.304Z,27.27
2023-02-23T00:20:27.442Z,24.00
2023-02-23T00:22:56.311Z,23.58
2023-02-23T00:25:26.319Z,21.98
2023-02-23T00:27:54.881Z,22.52
2023-02-23T00:30:22.636Z,23.33
2023-02-23T00:32:52.512Z,25.08
2023-02-23T00:35:20.498Z,25.40
2023-02-23T00:37:49.658Z,27.65
2023-02-23T00:40:20.654Z,25.50
2023-02-23T00:42:52.312Z,33.08
2023-02-23T00:45:20.520Z,24.92
2023-02-23T00:47:49.070Z,32.75
2023-02-23T00:50:18.818Z,27.38
2023-02-23T00:52:46.559Z,27.88
2023-02-23T00:55:16.178Z,26.70
2023-02-23T00:57:43.991Z,24.23
2023-02-23T01:00:20.207Z,29.27
2023-02-23T01:02:48.870Z,30.27
2023-02-23T01:05:17.521Z,30.50
2023-02-23T01:07:47.126Z,25.98
2023-02-23T01:10:20.247Z,30.23
2023-02-23T01:12:49.590Z,26.85
2023-02-23T01:15:21.268Z,29.35
2023-02-23T01:17:49.251Z,31.02
2023-02-23T01:20:19.231Z,29.98
2023-02-23T01:22:49.116Z,30.75
2023-02-23T01:25:17.547Z,29.02
2023-02-23T01:27:46.445Z,34.83
2023-02-23T01:30:16.113Z,27.33
2023-02-23T01:32:45.176Z,30.33
2023-02-23T01:35:13.737Z,30.65
2023-02-23T01:37:43.264Z,27.98
2023-02-23T01:40:15.652Z,32.38
2023-02-23T01:42:46.915Z,38.35
2023-02-23T01:45:27.216Z,35.42
2023-02-23T01:48:01.676Z,30.83
2023-02-23T01:50:34.086Z,34.50
2023-02-23T01:53:02.149Z,34.60
2023-02-23T01:55:30.629Z,35.70
2023-02-23T01:58:06.626Z,36.70
2023-02-23T02:00:36.760Z,32.03
2023-02-23T02:03:14.012Z,36.97
2023-02-23T02:05:42.040Z,38.15
2023-02-23T02:08:11.601Z,34.75
2023-02-23T02:10:45.787Z,33.78
2023-02-23T02:13:22.808Z,35.00
2023-02-23T02:16:28.977Z,29.35
2023-02-23T02:19:22.120Z,33.88
2023-02-23T02:22:15.882Z,30.40
2023-02-23T02:25:23.759Z,33.67
2023-02-23T02:28:13.276Z,31.73
2023-02-23T02:31:13.186Z,33.15
2023-02-23T02:34:11.765Z,32.72
2023-02-23T02:37:13.483Z,33.65
2023-02-23T02:39:53.560Z,35.42
2023-02-23T02:42:29.201Z,33.25
2023-02-23T02:45:10.805Z,37.83
2023-02-23T02:47:44.090Z,31.30
2023-02-23T02:50:18.493Z,33.08
2023-02-23T02:52:54.163Z,30.92
2023-02-23T02:57:56.746Z,29.92
2023-02-23T03:00:49.025Z,32.80
2023-02-23T03:03:47.382Z,30.67
2023-02-23T03:06:33.840Z,34.42
2023-02-23T03:09:29.895Z,28.25
2023-02-23T03:12:24.202Z,29.15
2023-02-23T03:15:22.120Z,33.17
2023-02-23T03:18:16.184Z,29.95
2023-02-23T03:21:06.625Z,31.13
2023-02-23T03:24:03.200Z,28.15
2023-02-23T03:26:56.002Z,25.10
2023-02-23T03:29:50.306Z,24.17
2023-02-23T03:32:44.152Z,23.75
2023-02-23T03:35:37.477Z,23.50
2023-02-23T03:38:28.905Z,22.92
2023-02-23T03:41:15.221Z,34.88
2023-02-23T03:44:06.287Z,26.25
2023-02-23T03:46:52.645Z,29.67
2023-02-23T03:49:39.353Z,28.13
2023-02-23T03:52:32.510Z,29.73
2023-02-23T03:55:20.293Z,34.30
2023-02-23T03:58:10.689Z,30.90
2023-02-23T04:01:04.030Z,28.15
2023-02-23T04:03:52.405Z,26.67
2023-02-23T04:06:38.995Z,27.02
2023-02-23T04:09:26.325Z,24.92
2023-02-23T04:12:15.606Z,21.02
2023-02-23T04:14:48.870Z,21.88
2023-02-23T04:17:24.244Z,23.70
2023-02-23T04:19:52.702Z,23.23
2023-02-23T04:22:20.496Z,21.63
2023-02-23T04:24:48.506Z,28.38
2023-02-23T04:27:16.428Z,25.70
2023-02-23T04:29:46.472Z,22.48
2023-02-23T04:32:17.360Z,26.02
2023-02-23T04:34:46.020Z,23.42
2023-02-23T04:37:14.654Z,25.60
2023-02-23T04:39:42.917Z,19.55
2023-02-23T04:42:10.786Z,23.00
2023-02-23T04:44:38.520Z,22.73
2023-02-23T04:47:06.290Z,26.48
2023-02-23T04:49:35.433Z,27.48
2023-02-23T04:52:03.340Z,26.40
2023-02-23T04:54:31.010Z,22.08
2023-02-23T04:56:58.728Z,28.52
2023-02-23T04:59:26.872Z,27.02
2023-02-23T05:01:55.739Z,25.75
2023-02-23T05:04:23.650Z,25.92
2023-02-23T05:06:53.139Z,25.65
2023-02-23T05:09:20.992Z,24.05
2023-02-23T05:11:48.682Z,23.45
2023-02-23T05:14:16.379Z,22.52
2023-02-23T05:16:44.133Z,22.67
2023-02-23T05:19:12.010Z,22.63
2023-02-23T05:24:10.686Z,23.25
2023-02-23T05:26:38.544Z,19.98
2023-02-23T05:29:06.559Z,22.48
2023-02-23T05:31:34.349Z,20.05
2023-02-23T05:34:02.155Z,21.70
2023-02-23T05:36:30.232Z,24.25
2023-02-23T05:38:57.940Z,26.02
2023-02-23T05:41:27.033Z,25.88
2023-02-23T05:43:56.332Z,24.90
2023-02-23T05:46:26.569Z,24.05
2023-02-23T05:48:57.533Z,27.20
2023-02-23T05:51:25.776Z,21.13
2023-02-23T05:53:53.500Z,20.02
2023-02-23T05:56:21.559Z,23.65
2023-02-23T05:58:51.974Z,29.45
2023-02-23T06:01:21.031Z,25.83
2023-02-23T06:03:49.532Z,22.10
2023-02-23T06:06:18.354Z,23.73
2023-02-23T06:08:46.450Z,25.92
2023-02-23T06:11:14.378Z,25.02
2023-02-23T06:13:42.213Z,25.38
2023-02-23T06:16:11.358Z,24.00
2023-02-23T06:18:39.204Z,28.48
2023-02-23T06:21:07.162Z,29.92
2023-02-23T06:23:34.934Z,26.17
2023-02-23T06:26:02.822Z,27.63
2023-02-23T06:28:30.917Z,26.85
2023-02-23T06:30:58.763Z,27.52
2023-02-23T06:33:28.183Z,38.15
2023-02-23T06:35:56.174Z,32.50
2023-02-23T06:38:23.992Z,28.17
2023-02-23T06:40:52.203Z,28.92
2023-02-23T06:43:21.616Z,31.20
2023-02-23T06:45:50.885Z,30.35
2023-02-23T06:48:18.582Z,31.15
2023-02-23T06:50:47.625Z,28.58
2023-02-23T06:53:15.406Z,30.95
2023-02-23T06:55:43.073Z,28.30
2023-02-23T06:58:10.830Z,27.65
2023-02-23T07:00:42.861Z,23.40
2023-02-23T07:03:11.203Z,27.15
2023-02-23T07:05:39.023Z,22.42
2023-02-23T07:08:08.319Z,21.08
2023-02-23T07:10:36.065Z,22.05
2023-02-23T07:13:03.793Z,20.05
2023-02-23T07:15:31.539Z,24.15
2023-02-23T07:17:59.222Z,20.35
2023-02-23T07:20:26.924Z,22.00
2023-02-23T07:22:54.866Z,25.60
2023-02-23T07:25:24.043Z,18.55
2023-02-23T07:27:51.884Z,22.70
2023-02-23T07:30:19.947Z,21.85
2023-02-23T07:32:47.803Z,19.85
2023-02-23T07:35:15.634Z,17.80
2023-02-23T07:37:43.462Z,21.58
2023-02-23T07:40:12.606Z,23.15
2023-02-23T07:42:41.888Z,21.08
2023-02-23T07:45:10.690Z,23.70
2023-02-23T07:47:39.424Z,26.42
2023-02-23T07:50:10.477Z,21.90
2023-02-23T07:52:39.678Z,24.13
2023-02-23T07:55:08.763Z,25.52
2023-02-23T07:57:36.533Z,22.02
2023-02-23T08:00:06.751Z,27.98
2023-02-23T08:02:34.730Z,22.85
2023-02-23T08:05:02.427Z,25.63
2023-02-23T08:07:32.663Z,31.05
2023-02-23T08:10:00.553Z,21.58
2023-02-23T08:12:28.363Z,30.77
2023-02-23T08:14:56.182Z,26.55
2023-02-23T08:17:25.292Z,23.95
2023-02-23T08:19:53.063Z,24.13
2023-02-23T08:22:21.500Z,24.00
2023-02-23T08:24:49.221Z,26.83
2023-02-23T08:27:16.971Z,24.40
2023-02-23T08:29:44.735Z,26.13
2023-02-23T08:32:12.714Z,25.75
2023-02-23T08:34:43.888Z,23.52
2023-02-23T08:37:12.152Z,25.35
2023-02-23T08:39:40.318Z,23.17
2023-02-23T08:42:09.048Z,22.13
2023-02-23T08:44:36.767Z,23.17
2023-02-23T08:47:04.675Z,22.88
2023-02-23T08:49:33.434Z,26.95
2023-02-23T08:52:02.535Z,23.52
2023-02-23T08:54:30.571Z,25.33
2023-02-23T08:56:58.862Z,28.60
2023-02-23T08:59:27.134Z,26.80
2023-02-23T09:01:54.923Z,23.35
2023-02-23T09:04:22.639Z,27.13
2023-02-23T09:06:50.440Z,26.88
2023-02-23T09:09:19.642Z,28.90
2023-02-23T09:11:47.476Z,25.30
2023-02-23T09:14:15.449Z,26.27
2023-02-23T09:16:45.075Z,22.20
2023-02-23T09:19:13.137Z,24.30
2023-02-23T09:21:41.319Z,28.90
2023-02-23T09:24:09.030Z,24.00
2023-02-23T09:26:40.174Z,25.25
2023-02-23T09:29:08.613Z,22.52
2023-02-23T09:31:36.459Z,22.80
2023-02-23T09:34:04.242Z,23.75
2023-02-23T09:36:32.564Z,19.85
2023-02-23T09:39:00.323Z,23.52
2023-02-23T09:42:03.952Z,20.55
2023-02-23T09:44:44.052Z,17.85
2023-02-23T09:47:32.638Z,20.05
2023-02-23T09:50:03.716Z,21.25
2023-02-23T09:52:40.443Z,20.05
2023-02-23T09:55:12.131Z,17.05
2023-02-23T09:57:44.808Z,19.13
2023-02-23T10:00:22.792Z,15.63
2023-02-23T10:03:07.363Z,19.52
2023-02-23T10:05:47.834Z,18.38
2023-02-23T10:08:42.419Z,14.88
2023-02-23T10:11:22.453Z,20.33
2023-02-23T10:14:00.551Z,18.20
2023-02-23T10:16:39.713Z,16.55
2023-02-23T10:19:16.019Z,19.55
2023-02-23T10:21:49.989Z,14.45
2023-02-23T10:24:25.264Z,21.40
2023-02-23T10:26:56.322Z,15.60
2023-02-23T10:29:30.347Z,15.15
2023-02-23T10:32:01.746Z,13.52
2023-02-23T10:34:30.172Z,16.67
2023-02-23T10:37:01.797Z,14.90
2023-02-23T10:39:31.700Z,13.88
2023-02-23T10:42:03.137Z,13.15
2023-02-23T10:44:32.592Z,15.73
2023-02-23T10:47:03.803Z,15.77
2023-02-23T10:49:40.755Z,15.80
2023-02-23T10:52:13.791Z,14.32
2023-02-23T10:54:47.734Z,14.15
2023-02-23T10:57:27.875Z,14.35
2023-02-23T11:00:30.742Z,12.75
2023-02-23T11:02:59.409Z,14.95
2023-02-23T11:05:32.374Z,12.52
2023-02-23T11:08:20.572Z,14.20
2023-02-23T11:11:01.043Z,13.82
2023-02-23T11:13:34.531Z,13.18
2023-02-23T11:16:06.561Z,10.15
2023-02-23T11:18:34.612Z,11.13
2023-02-23T11:21:02.771Z,13.13
2023-02-23T11:23:35.457Z,14.23
2023-02-23T11:26:05.179Z,14.68
2023-02-23T11:28:36.707Z,11.38
2023-02-23T11:31:15.796Z,10.80
2023-02-23T11:33:44.080Z,14.85
2023-02-23T11:36:18.583Z,11.70
2023-02-23T11:38:47.688Z,10.65
2023-02-23T11:41:21.944Z,11.23
2023-02-23T11:43:51.549Z,11.55
2023-02-23T11:46:23.035Z,13.82
2023-02-23T11:48:55.154Z,10.65
2023-02-23T11:51:28.795Z,9.73
2023-02-23T11:53:57.088Z,9.65
2023-02-23T11:56:27.205Z,11.02
2023-02-23T11:58:57.699Z,12.73
2023-02-23T12:01:41.625Z,9.15
2023-02-23T12:04:10.810Z,12.15
2023-02-23T12:06:40.723Z,12.98
2023-02-23T12:09:18.550Z,9.73
2023-02-23T12:11:52.881Z,9.27
2023-02-23T12:14:30.408Z,7.03
2023-02-23T12:17:05.175Z,7.57
2023-02-23T12:19:39.038Z,7.53
2023-02-23T12:22:12.373Z,7.35
2023-02-23T12:24:46.255Z,7.75
2023-02-23T12:27:22.302Z,7.32
2023-02-23T12:30:06.274Z,8.38
2023-02-23T12:32:45.460Z,8.50
2023-02-23T12:35:20.271Z,9.30
2023-02-23T12:37:54.497Z,8.80
2023-02-23T12:40:27.998Z,10.52
2023-02-23T12:43:01.962Z,8.50
2023-02-23T12:45:36.806Z,12.93
2023-02-23T12:48:13.397Z,13.57
2023-02-23T12:50:48.258Z,11.30
2023-02-23T12:53:23.472Z,10.95
2023-02-23T12:56:13.711Z,10.60
2023-02-23T12:58:49.383Z,12.32
2023-02-23T13:01:24.621Z,14.75
2023-02-23T13:04:23.625Z,11.35
2023-02-23T13:06:58.703Z,13.45
2023-02-23T13:09:37.822Z,11.10
2023-02-23T13:12:36.240Z,16.77
2023-02-23T13:15:19.696Z,12.20
2023-02-23T13:17:51.826Z,13.65
2023-02-23T13:20:27.724Z,12.77
2023-02-23T13:23:00.734Z,16.27
2023-02-23T13:25:38.559Z,10.20
2023-02-23T13:28:13.978Z,13.60
2023-02-23T13:30:47.280Z,10.60
2023-02-23T13:33:29.730Z,13.35
2023-02-23T13:36:08.637Z,10.55
2023-02-23T13:38:47.755Z,10.88
2023-02-23T13:41:30.795Z,15.05
2023-02-23T13:44:02.511Z,9.18
2023-02-23T13:46:41.856Z,9.05
2023-02-23T13:49:24.781Z,11.60
2023-02-23T13:51:57.932Z,8.77
2023-02-23T13:54:29.623Z,10.35
2023-02-23T13:57:00.009Z,11.73
2023-02-23T13:59:30.984Z,12.93
2023-02-23T14:02:03.386Z,12.45
2023-02-23T14:04:38.207Z,13.57
2023-02-23T14:07:22.236Z,11.68
2023-02-23T14:09:55.811Z,7.95
2023-02-23T14:12:25.912Z,6.15
2023-02-23T14:14:53.823Z,7.35
2023-02-23T14:17:55.677Z,9.63
2023-02-23T14:20:47.090Z,4.55
2023-02-23T14:23:34.324Z,4.72
2023-02-23T14:26:16.397Z,5.18
2023-02-23T14:28:45.870Z,8.05
2023-02-23T14:31:23.830Z,5.35
2023-02-23T14:33:58.635Z,4.45
2023-02-23T14:36:37.850Z,6.85
2023-02-23T14:39:10.381Z,4.90
2023-02-23T14:41:44.963Z,4.65
2023-02-23T14:44:28.383Z,4.18
2023-02-23T14:47:02.439Z,11.15
2023-02-23T14:49:35.006Z,5.68
2023-02-23T14:52:07.943Z,5.68
2023-02-23T14:54:39.233Z,5.15
2023-02-23T14:57:17.625Z,5.30
2023-02-23T14:59:47.197Z,5.93
2023-02-23T15:02:21.160Z,8.10
2023-02-23T15:04:48.984Z,4.80
2023-02-23T15:07:24.078Z,6.18
2023-02-23T15:09:58.328Z,5.18
2023-02-23T15:12:30.627Z,5.30
2023-02-23T15:15:01.276Z,15.85
2023-02-23T15:17:31.971Z,8.60
2023-02-23T15:20:15.405Z,7.53
2023-02-23T15:22:47.857Z,8.93
2023-02-23T15:25:19.713Z,6.57
2023-02-23T15:27:48.668Z,4.80
2023-02-23T15:30:27.717Z,6.78
2023-02-23T15:33:03.870Z,7.85
2023-02-23T15:35:37.970Z,7.20
2023-02-23T15:38:17.931Z,9.70
2023-02-23T15:40:58.713Z,8.38
2023-02-23T15:43:29.854Z,9.43
2023-02-23T15:46:03.501Z,7.22
2023-02-23T15:48:42.706Z,8.13
2023-02-23T15:51:23.624Z,6.95
2023-02-23T15:53:51.730Z,7.90
2023-02-23T15:56:27.458Z,8.55
2023-02-23T15:58:59.103Z,7.80
2023-02-23T16:01:29.119Z,8.75
2023-02-23T16:04:01.645Z,6.82
2023-02-23T16:06:34.395Z,8.65
2023-02-23T16:09:21.632Z,6.18
2023-02-23T16:11:53.734Z,7.22
2023-02-23T16:14:23.370Z,7.97
2023-02-23T16:17:10.067Z,5.82
2023-02-23T16:19:41.156Z,5.82
2023-02-23T16:22:21.355Z,7.03
2023-02-23T16:24:58.107Z,7.38
2023-02-23T16:27:29.249Z,7.68
2023-02-23T16:30:00.174Z,7.50
2023-02-23T16:32:35.864Z,7.05
2023-02-23T16:35:12.217Z,5.72
2023-02-23T16:37:54.769Z,5.75
2023-02-23T16:40:22.677Z,4.93
2023-02-23T16:42:53.952Z,7.50
2023-02-23T16:45:22.681Z,6.97
2023-02-23T16:47:52.535Z,4.60
2023-02-23T16:50:23.050Z,7.20
2023-02-23T16:52:52.957Z,8.40
2023-02-23T16:55:25.771Z,6.65
2023-02-23T16:57:57.389Z,5.32
2023-02-23T17:00:28.688Z,10.77
2023-02-23T17:02:57.344Z,5.20
2023-02-23T17:05:26.214Z,5.90
2023-02-23T17:07:55.434Z,5.82
2023-02-23T17:10:26.120Z,4.63
2023-02-23T17:12:58.497Z,7.22
2023-02-23T17:15:30.129Z,9.32
2023-02-23T17:17:58.041Z,8.35
2023-02-23T17:20:26.750Z,6.53
2023-02-23T17:22:55.397Z,6.25
2023-02-23T17:25:26.505Z,10.07
2023-02-23T17:27:56.529Z,9.25
2023-02-23T17:30:24.932Z,6.88
2023-02-23T17:32:54.625Z,7.90
2023-02-23T17:35:23.341Z,5.95
2023-02-23T17:37:51.332Z,10.77
2023-02-23T17:40:28.746Z,6.55
2023-02-23T17:42:59.535Z,6.32
2023-02-23T17:45:27.808Z,5.70
2023-02-23T17:47:55.808Z,6.93
2023-02-23T17:50:24.208Z,8.63
2023-02-23T17:52:52.486Z,6.45
2023-02-23T17:55:22.214Z,7.63
2023-02-23T17:57:50.011Z,5.82
2023-02-23T18:00:21.339Z,9.07
2023-02-23T18:02:49.306Z,13.52
2023-02-23T18:05:17.395Z,12.02
2023-02-23T18:07:48.953Z,8.43
2023-02-23T18:10:17.505Z,10.77
2023-02-23T18:12:45.619Z,10.18
2023-02-23T18:15:13.482Z,12.27
2023-02-23T18:17:42.596Z,9.73
2023-02-23T18:20:15.031Z,13.30
2023-02-23T18:22:43.267Z,11.15
2023-02-23T18:25:21.021Z,7.95
2023-02-23T18:27:53.971Z,9.60
2023-02-23T18:30:22.900Z,10.00
2023-02-23T18:32:52.734Z,7.63
2023-02-23T18:35:20.546Z,11.68
2023-02-23T18:37:49.620Z,6.53
2023-02-23T18:40:21.486Z,8.30
2023-02-23T18:42:49.690Z,6.63
2023-02-23T18:45:18.141Z,7.88
2023-02-23T18:47:45.890Z,7.80
2023-02-23T18:50:19.171Z,8.00
2023-02-23T18:52:48.076Z,8.13
2023-02-23T18:55:16.450Z,5.70
2023-02-23T18:57:44.244Z,5.05
2023-02-23T19:00:14.365Z,7.20
2023-02-23T19:02:42.442Z,7.35
2023-02-23T19:05:12.882Z,26.05
2023-02-23T19:07:42.847Z,8.75
2023-02-23T19:10:14.716Z,8.85
2023-02-23T19:12:42.793Z,7.47
2023-02-23T19:15:12.336Z,12.43
2023-02-23T19:17:40.083Z,6.22
2023-02-23T19:20:12.775Z,10.82
2023-02-23T19:22:42.660Z,10.35
2023-02-23T19:25:14.552Z,8.20
2023-02-23T19:27:42.676Z,7.40
2023-02-23T19:30:12.105Z,8.00
2023-02-23T19:32:40.610Z,7.32
2023-02-23T19:35:11.110Z,5.68
2023-02-23T19:37:40.596Z,11.43
2023-02-23T19:40:11.807Z,5.72
2023-02-23T19:42:43.598Z,11.30
2023-02-23T19:45:11.492Z,6.03
2023-02-23T19:47:40.329Z,10.60
2023-02-23T19:50:13.659Z,6.68
2023-02-23T19:52:41.346Z,8.48
2023-02-23T19:55:11.344Z,7.15
2023-02-23T19:57:39.233Z,7.72
2023-02-23T20:00:12.133Z,10.07
2023-02-23T20:02:43.543Z,9.80
2023-02-23T20:05:12.147Z,9.63
2023-02-23T20:07:39.961Z,14.05
2023-02-23T20:10:10.301Z,13.80
2023-02-23T20:12:39.525Z,8.50
2023-02-23T20:15:08.586Z,9.25
2023-02-23T20:17:36.458Z,8.50
2023-02-23T20:20:06.302Z,7.53
2023-02-23T20:22:36.465Z,10.82
2023-02-23T20:25:05.917Z,9.15
2023-02-23T20:27:33.916Z,5.85
2023-02-23T20:30:03.009Z,7.78
2023-02-23T20:32:30.857Z,6.63
2023-02-23T20:35:01.567Z,6.97
2023-02-23T20:37:29.313Z,8.35
2023-02-23T20:39:57.057Z,9.38
2023-02-23T20:42:28.252Z,8.40
2023-02-23T20:44:56.206Z,6.45
2023-02-23T20:47:25.428Z,4.65
2023-02-23T20:49:53.192Z,5.57
2023-02-23T20:52:20.972Z,6.22
2023-02-23T20:54:48.735Z,6.25
2023-02-23T20:57:16.461Z,6.93
2023-02-23T20:59:44.222Z,5.57
2023-02-23T21:02:13.977Z,11.30
2023-02-23T21:04:44.234Z,8.65
2023-02-23T21:07:13.360Z,9.85
2023-02-23T21:09:41.636Z,7.75
2023-02-23T21:12:10.775Z,6.57
2023-02-23T21:14:38.566Z,10.25
2023-02-23T21:17:07.415Z,8.73
2023-02-23T21:19:36.330Z,11.15
2023-02-23T21:22:05.564Z,9.30
2023-02-23T21:24:34.719Z,10.57
2023-02-23T21:27:05.226Z,8.23
2023-02-23T21:29:33.006Z,11.02
2023-02-23T21:32:00.802Z,11.23
2023-02-23T21:34:28.565Z,6.88
2023-02-23T21:36:59.160Z,8.93
2023-02-23T21:39:28.460Z,9.25
2023-02-23T21:41:56.204Z,12.38
2023-02-23T21:44:23.951Z,9.32
2023-02-23T21:46:52.004Z,9.75
2023-02-23T21:49:20.683Z,7.45
2023-02-23T21:51:48.430Z,9.88
2023-02-23T21:54:16.467Z,9.32
2023-02-23T21:56:45.708Z,7.22
2023-02-23T21:59:13.511Z,5.97
2023-02-23T22:01:42.858Z,10.35
2023-02-23T22:04:15.181Z,9.57
2023-02-23T22:06:44.857Z,6.47
2023-02-23T22:09:15.472Z,10.85
2023-02-23T22:11:46.802Z,9.50
2023-02-23T22:14:16.609Z,7.60
2023-02-23T22:16:44.690Z,10.00
2023-02-23T22:19:13.220Z,8.65
2023-02-23T22:21:42.809Z,10.25
2023-02-23T22:24:12.953Z,10.43
2023-02-23T22:26:42.811Z,8.85
2023-02-23T22:29:11.984Z,8.57
2023-02-23T22:31:40.626Z,6.85
2023-02-23T22:34:08.521Z,9.40
2023-02-23T22:36:36.327Z,7.63
2023-02-23T22:39:06.902Z,12.80
2023-02-23T22:41:42.116Z,12.93
2023-02-23T22:44:13.486Z,11.30
2023-02-23T22:46:42.022Z,7.85
2023-02-23T22:49:10.665Z,8.82
2023-02-23T22:51:39.243Z,9.48
2023-02-23T22:54:07.411Z,8.93
2023-02-23T23:03:31.601Z,7.63
2023-02-23T23:06:02.515Z,10.23
2023-02-23T23:08:31.626Z,8.77
2023-02-23T23:11:09.243Z,7.47
2023-02-23T23:13:44.483Z,7.68
2023-02-23T23:16:30.208Z,7.80
2023-02-23T23:19:02.622Z,8.85
2023-02-23T23:21:32.732Z,10.18
2023-02-23T23:24:05.610Z,12.50
2023-02-23T23:26:34.823Z,8.48
2023-02-23T23:29:05.558Z,8.48
2023-02-23T23:31:38.066Z,12.35
2023-02-23T23:34:09.330Z,9.20
2023-02-23T23:36:42.681Z,12.10
2023-02-23T23:39:12.920Z,14.00
2023-02-23T23:41:42.936Z,9.70
2023-02-23T23:44:13.072Z,8.18
2023-02-23T23:46:44.684Z,11.02
2023-02-23T23:49:15.834Z,9.45
2023-02-23T23:51:45.624Z,7.18
2023-02-23T23:54:15.670Z,12.85
2023-02-23T23:56:44.496Z,9.18
2023-02-23T23:59:16.360Z,9.27
